Time;durP1;ratioP1;P1;durP2;ratioP2;P2;SDS_P1;SDS_P2;PMS_P1;PMS_P2;Temp;Humidity;BMP_temperature;BMP_pressure;BME280_temperature;BME280_humidity;BME280_pressure;Samples;Min_cycle;Max_cycle;Signal;HPM_P1;HPM_P2
2023/03/11 00:00:44;;;;;;;9.60;7.30;;;;;;;13.66;51.33;98018.69;104637;1251;68521;-67
2023/03/11 00:03:15;;;;;;;8.10;7.20;;;;;;;13.64;51.44;98020.55;104713;1254;72195;-66
2023/03/11 00:05:44;;;;;;;10.90;7.60;;;;;;;13.60;51.98;98014.72;104771;1254;60883;-67
2023/03/11 00:08:20;;;;;;;8.80;7.00;;;;;;;13.60;51.52;98012.95;104653;1253;60856;-65
2023/03/11 00:10:54;;;;;;;8.20;7.20;;;;;;;13.56;51.82;98014.50;104679;1254;72784;-66
2023/03/11 00:13:26;;;;;;;8.50;7.10;;;;;;;13.60;51.53;98014.88;104791;1253;68221;-65
2023/03/11 00:15:55;;;;;;;8.80;6.90;;;;;;;13.61;51.31;98009.54;104763;1254;70782;-66
2023/03/11 00:18:26;;;;;;;8.60;7.00;;;;;;;13.66;50.98;98007.22;104745;1250;60788;-66
2023/03/11 00:20:57;;;;;;;10.90;8.10;;;;;;;13.57;51.28;98000.89;104766;1250;60822;-65
2023/03/11 00:23:25;;;;;;;8.30;7.40;;;;;;;13.55;51.24;97996.31;104788;1252;73651;-66
2023/03/11 00:25:58;;;;;;;9.10;7.10;;;;;;;13.52;51.88;97998.98;104738;1273;69136;-63
2023/03/11 00:28:27;;;;;;;8.30;7.20;;;;;;;13.51;51.64;97995.55;104605;1250;72235;-63
2023/03/11 00:30:56;;;;;;;8.70;6.70;;;;;;;13.54;51.68;97989.71;104586;1255;60857;-63
2023/03/11 00:33:27;;;;;;;7.90;6.80;;;;;;;13.55;51.38;97986.45;104673;1250;60751;-62
2023/03/11 00:35:58;;;;;;;8.70;7.20;;;;;;;13.52;51.96;97981.45;104725;1249;71565;-63
2023/03/11 00:38:26;;;;;;;8.20;7.00;;;;;;;13.54;51.26;97977.38;104626;1257;69030;-63
2023/03/11 00:40:55;;;;;;;8.10;7.00;;;;;;;13.55;51.52;97979.23;104719;1251;71469;-65
2023/03/11 00:43:23;;;;;;;9.30;7.40;;;;;;;13.57;51.53;97973.61;104655;1250;60863;-63
2023/03/11 00:45:52;;;;;;;8.80;7.40;;;;;;;13.54;51.71;97969.98;105813;1250;60762;-64
2023/03/11 00:48:21;;;;;;;8.60;7.00;;;;;;;13.54;51.69;97962.91;107472;1252;72378;-64
2023/03/11 00:50:50;;;;;;;9.80;7.60;;;;;;;13.51;51.90;97961.23;104994;1255;69086;-63
2023/03/11 00:53:23;;;;;;;8.80;7.40;;;;;;;13.48;51.53;97957.06;104810;1251;71595;-64
2023/03/11 00:55:52;;;;;;;10.50;7.30;;;;;;;13.45;51.53;97952.73;105168;1251;60876;-64
2023/03/11 00:58:26;;;;;;;9.50;7.40;;;;;;;13.41;51.98;97957.47;105025;1254;60897;-65
2023/03/11 01:00:56;;;;;;;8.80;7.20;;;;;;;13.39;51.77;97946.02;104940;1253;71997;-64
2023/03/11 01:03:25;;;;;;;9.90;7.50;;;;;;;13.39;52.00;97938.05;105086;1269;68481;-63
2023/03/11 01:05:55;;;;;;;8.50;7.30;;;;;;;13.41;51.64;97933.39;104905;1251;72938;-63
2023/03/11 01:08:26;;;;;;;7.00;6.10;;;;;;;13.38;51.67;97927.93;104999;1249;60793;-62
2023/03/11 01:10:55;;;;;;;9.30;7.20;;;;;;;13.38;51.50;97928.19;104905;1250;60812;-63
2023/03/11 01:13:26;;;;;;;8.30;6.80;;;;;;;13.38;51.98;97920.91;104984;1249;73712;-62
2023/03/11 01:15:55;;;;;;;10.50;7.80;;;;;;;13.38;51.84;97916.56;104993;1265;68191;-63
2023/03/11 01:18:24;;;;;;;8.20;6.60;;;;;;;13.39;51.25;97918.21;104985;1249;71027;-65
2023/03/11 01:20:53;;;;;;;9.80;7.40;;;;;;;13.40;51.43;97913.20;104910;1254;60878;-64
2023/03/11 01:23:21;;;;;;;8.40;7.00;;;;;;;13.38;51.58;97908.41;105120;1250;60812;-63
2023/03/11 01:25:50;;;;;;;8.30;6.60;;;;;;;13.37;52.01;97907.42;105144;1252;72438;-63
2023/03/11 01:28:18;;;;;;;7.50;6.60;;;;;;;13.33;51.48;97905.30;104970;1250;67817;-63
2023/03/11 01:30:47;;;;;;;7.40;6.60;;;;;;;13.34;51.94;97905.64;104973;1250;71725;-64
2023/03/11 01:33:17;;;;;;;8.70;6.70;;;;;;;13.33;51.66;97898.44;105046;1250;60917;-62
2023/03/11 01:35:45;;;;;;;8.50;6.50;;;;;;;13.36;52.03;97897.02;104915;1260;60876;-64
2023/03/11 01:38:14;;;;;;;7.00;6.30;;;;;;;13.40;52.21;97897.34;105082;1250;72605;-63
2023/03/11 01:40:47;;;;;;;6.90;5.70;;;;;;;13.45;51.59;97894.31;104956;1250;70569;-62
2023/03/11 01:43:37;;;;;;;6.10;5.50;;;;;;;13.44;51.82;97891.73;105021;1254;72363;-62
2023/03/11 01:46:16;;;;;;;7.30;6.60;;;;;;;13.46;52.15;97887.04;104929;1262;61552;-63
2023/03/11 01:48:56;;;;;;;6.60;5.60;;;;;;;13.52;51.67;97885.42;104827;1259;60777;-63
2023/03/11 01:51:31;;;;;;;6.70;5.80;;;;;;;13.57;51.41;97880.98;105014;1251;72621;-62
2023/03/11 01:54:03;;;;;;;6.00;5.40;;;;;;;13.61;51.54;97885.58;105080;1261;68125;-62
2023/03/11 01:56:32;;;;;;;7.40;5.90;;;;;;;13.59;51.41;97880.27;104771;1262;70891;-63
2023/03/11 01:59:01;;;;;;;6.00;5.40;;;;;;;13.60;51.65;97873.39;104598;1267;60925;-66
2023/03/11 02:01:29;;;;;;;6.70;5.60;;;;;;;13.63;51.40;97870.33;105020;1250;60768;-64
2023/03/11 02:03:59;;;;;;;5.90;5.30;;;;;;;13.70;51.61;97868.29;104675;1260;73737;-64
2023/03/11 02:06:28;;;;;;;5.70;5.00;;;;;;;13.73;51.19;97864.89;104623;1250;69105;-65
2023/03/11 02:08:58;;;;;;;5.90;5.20;;;;;;;13.76;51.53;97866.37;104509;1271;71607;-62
2023/03/11 02:11:28;;;;;;;6.20;5.60;;;;;;;13.79;51.16;97858.88;104504;1271;60984;-65
2023/03/11 02:14:00;;;;;;;5.80;5.20;;;;;;;13.82;51.48;97857.77;105000;1253;60774;-64
2023/03/11 02:16:32;;;;;;;7.60;5.00;;;;;;;13.78;51.72;97856.52;104639;1255;72221;-64
2023/03/11 02:19:16;;;;;;;6.20;4.90;;;;;;;13.79;51.96;97854.52;104605;1252;69089;-64
2023/03/11 02:21:44;;;;;;;5.50;5.00;;;;;;;13.81;51.74;97855.05;107240;1250;72344;-66
2023/03/11 02:24:32;;;;;;;6.00;5.40;;;;;;;13.89;51.44;97855.65;108909;1249;59206;-67
2023/03/11 02:27:11;;;;;;;5.20;4.70;;;;;;;13.92;51.33;97856.05;107073;1250;60863;-65
2023/03/11 02:29:40;;;;;;;5.60;5.00;;;;;;;14.03;51.37;97854.80;104592;1253;71579;-65
2023/03/11 02:32:09;;;;;;;4.80;4.40;;;;;;;14.06;51.03;97853.95;104573;1249;68405;-65
2023/03/11 02:34:41;;;;;;;7.30;5.20;;;;;;;14.07;51.03;97853.44;104522;1256;72076;-64
2023/03/11 02:37:12;;;;;;;5.60;5.00;;;;;;;14.11;51.12;97853.04;104961;1250;60901;-65
2023/03/11 02:39:47;;;;;;;5.70;4.90;;;;;;;14.14;50.78;97850.16;105103;1253;60891;-65
2023/03/11 02:42:24;;;;;;;5.70;5.10;;;;;;;14.17;50.79;97850.25;104899;1254;72600;-66
2023/03/11 02:45:07;;;;;;;5.00;4.60;;;;;;;14.21;50.28;97844.45;105023;1253;68755;-64
2023/03/11 02:47:37;;;;;;;5.80;5.20;;;;;;;14.26;50.29;97840.44;104736;1273;72354;-65
2023/03/11 02:50:07;;;;;;;5.40;4.80;;;;;;;14.29;50.50;97838.23;104668;1253;60835;-65
2023/03/11 02:52:35;;;;;;;6.00;5.40;;;;;;;14.31;50.31;97833.88;104933;1264;60634;-65
2023/03/11 02:55:05;;;;;;;7.20;4.80;;;;;;;14.30;50.21;97827.42;104485;1255;72546;-66
2023/03/11 02:57:34;;;;;;;5.60;5.00;;;;;;;14.28;50.36;97822.12;104762;1256;69261;-65
2023/03/11 03:00:10;;;;;;;6.60;5.80;;;;;;;14.20;50.53;97820.39;104745;1252;71512;-65
2023/03/11 03:02:40;;;;;;;5.60;5.00;;;;;;;14.20;50.43;97814.55;104749;1269;61680;-64
2023/03/11 03:05:09;;;;;;;5.00;4.50;;;;;;;14.20;50.04;97811.71;104694;1250;61686;-65
2023/03/11 03:07:39;;;;;;;5.50;4.70;;;;;;;14.17;50.51;97809.91;104561;1255;72173;-67
2023/03/11 03:10:08;;;;;;;5.00;4.60;;;;;;;14.09;50.36;97806.70;104622;1256;68414;-65
2023/03/11 03:12:37;;;;;;;5.30;4.80;;;;;;;14.01;50.51;97808.05;104637;1254;73454;-66
2023/03/11 03:15:07;;;;;;;5.40;4.90;;;;;;;14.05;50.50;97805.14;104633;1250;61590;-65
2023/03/11 03:17:36;;;;;;;6.30;5.60;;;;;;;14.04;50.18;97799.23;104643;1267;61071;-65
2023/03/11 03:20:10;;;;;;;5.90;5.30;;;;;;;14.04;50.57;97805.71;104663;1250;73916;-66
2023/03/11 03:22:42;;;;;;;5.90;5.10;;;;;;;14.03;50.45;97800.88;104790;1254;68599;-67
2023/03/11 03:25:11;;;;;;;5.60;5.10;;;;;;;14.01;50.38;97797.86;104638;1250;72768;-67
2023/03/11 03:27:41;;;;;;;5.30;4.60;;;;;;;14.00;50.52;97796.41;104825;1255;61696;-67
2023/03/11 03:30:10;;;;;;;6.20;5.10;;;;;;;13.97;50.63;97789.02;104932;1259;61612;-68
2023/03/11 03:32:39;;;;;;;5.90;5.20;;;;;;;13.97;51.11;97784.08;104724;1250;74907;-66
2023/03/11 03:35:11;;;;;;;6.00;5.50;;;;;;;13.94;50.62;97785.61;104704;1255;68534;-66
2023/03/11 03:38:06;;;;;;;6.50;5.80;;;;;;;13.95;50.94;97779.19;104699;1250;72110;-67
2023/03/11 03:40:35;;;;;;;6.70;5.40;;;;;;;13.92;50.85;97777.66;104705;1269;61685;-67
2023/03/11 03:43:04;;;;;;;6.30;5.60;;;;;;;13.88;51.21;97770.64;104661;1250;61581;-67
2023/03/11 03:45:34;;;;;;;5.90;5.30;;;;;;;13.90;51.25;97765.89;104655;1261;73766;-67
2023/03/11 03:48:04;;;;;;;7.70;5.50;;;;;;;13.90;51.29;97760.27;104871;1255;69223;-66
2023/03/11 03:50:35;;;;;;;7.00;5.60;;;;;;;13.86;51.43;97754.92;104810;1250;73255;-67
2023/03/11 03:53:03;;;;;;;6.50;5.60;;;;;;;13.87;51.30;97753.45;104560;1251;61680;-67
2023/03/11 03:55:31;;;;;;;6.90;6.00;;;;;;;13.83;51.33;97753.23;104968;1254;61593;-66
2023/03/11 03:58:00;;;;;;;6.10;5.40;;;;;;;13.86;51.14;97752.36;104961;1257;72467;-66
2023/03/11 04:00:33;;;;;;;7.60;6.20;;;;;;;13.88;51.33;97746.66;104834;1260;69094;-65
2023/03/11 04:03:03;;;;;;;7.80;5.60;;;;;;;13.89;50.98;97745.34;105122;1266;72822;-67
2023/03/11 04:05:39;;;;;;;6.50;5.80;;;;;;;13.90;50.88;97739.11;104951;1260;61772;-66
2023/03/11 04:08:11;;;;;;;7.00;6.20;;;;;;;13.87;50.82;97731.33;104708;1254;61704;-66
2023/03/11 04:10:41;;;;;;;8.70;5.80;;;;;;;13.89;50.97;97728.80;104798;1271;73495;-66
2023/03/11 04:13:09;;;;;;;6.80;6.00;;;;;;;13.85;50.44;97727.08;104733;1249;68699;-66
2023/03/11 04:15:38;;;;;;;8.10;6.50;;;;;;;13.80;50.27;97726.77;104752;1254;72798;-66
2023/03/11 04:18:21;;;;;;;6.90;6.30;;;;;;;13.74;51.03;97719.92;105063;1251;61728;-68
2023/03/11 04:20:50;;;;;;;7.90;6.30;;;;;;;13.71;50.63;97719.27;104663;1256;61564;-66
2023/03/11 04:23:24;;;;;;;7.60;6.20;;;;;;;13.66;50.72;97714.09;105037;1252;73255;-65
2023/03/11 04:25:53;;;;;;;8.50;6.40;;;;;;;13.65;50.45;97714.02;105160;1252;70662;-69
2023/03/11 04:28:21;;;;;;;8.80;6.70;;;;;;;13.60;50.48;97711.38;105028;1251;72449;-65
2023/03/11 04:30:50;;;;;;;7.80;7.00;;;;;;;13.61;50.95;97709.89;104990;1250;61648;-65
2023/03/11 04:33:19;;;;;;;8.20;6.70;;;;;;;13.58;51.41;97704.52;105083;1264;61693;-67
2023/03/11 04:35:48;;;;;;;8.50;6.90;;;;;;;13.56;51.30;97699.79;105040;1249;73121;-65
2023/03/11 04:38:18;;;;;;;7.90;6.70;;;;;;;13.53;51.10;97697.09;104847;1254;68009;-65
2023/03/11 04:40:46;;;;;;;7.60;6.80;;;;;;;13.45;51.47;97691.73;104931;1262;71077;-66
2023/03/11 04:43:15;;;;;;;8.80;6.80;;;;;;;13.42;51.82;97690.39;105056;1252;61724;-65
2023/03/11 04:45:44;;;;;;;9.30;7.40;;;;;;;13.39;52.17;97683.98;104790;1255;61654;-66
2023/03/11 04:48:13;;;;;;;8.50;6.90;;;;;;;13.34;52.11;97680.70;104782;1250;73481;-65
2023/03/11 04:50:42;;;;;;;11.10;7.80;;;;;;;13.36;52.48;97680.91;105588;1248;69822;-66
2023/03/11 04:53:10;;;;;;;9.40;7.40;;;;;;;13.37;52.76;97671.65;108922;1249;71680;-64
2023/03/11 04:55:40;;;;;;;10.20;7.90;;;;;;;13.35;52.89;97664.08;105948;1249;61762;-68
2023/03/11 04:58:09;;;;;;;9.30;7.40;;;;;;;13.33;53.56;97660.05;105061;1269;62369;-65
2023/03/11 05:00:38;;;;;;;8.70;7.40;;;;;;;13.33;53.24;97655.86;105415;1252;73446;-68
2023/03/11 05:03:09;;;;;;;8.70;7.20;;;;;;;13.37;54.10;97656.19;105396;1252;69763;-68
2023/03/11 05:05:38;;;;;;;10.00;8.00;;;;;;;13.39;54.09;97653.66;105286;1254;71652;-67
2023/03/11 05:08:06;;;;;;;8.40;7.00;;;;;;;13.42;53.99;97651.15;104651;1256;61720;-66
2023/03/11 05:10:35;;;;;;;10.00;8.30;;;;;;;13.44;54.01;97649.75;105079;1252;61688;-66
2023/03/11 05:13:05;;;;;;;9.70;8.30;;;;;;;13.47;54.06;97647.77;105048;1257;73459;-67
2023/03/11 05:15:37;;;;;;;9.40;8.10;;;;;;;13.52;53.97;97645.29;105062;1269;69410;-67
2023/03/11 05:18:07;;;;;;;9.20;8.00;;;;;;;13.57;54.40;97640.05;104700;1252;71746;-66
2023/03/11 05:20:37;;;;;;;10.00;8.10;;;;;;;13.61;54.54;97633.48;105203;1249;61690;-65
2023/03/11 05:23:06;;;;;;;10.50;8.00;;;;;;;13.66;54.08;97628.36;104794;1249;61683;-67
2023/03/11 05:25:36;;;;;;;10.70;8.60;;;;;;;13.73;54.47;97630.39;105137;1252;74082;-65
2023/03/11 05:28:06;;;;;;;12.30;9.10;;;;;;;13.80;54.33;97623.74;104984;1272;68320;-67
2023/03/11 05:30:37;;;;;;;10.80;9.20;;;;;;;13.87;54.28;97625.76;104693;1254;73135;-65
2023/03/11 05:33:05;;;;;;;12.50;9.40;;;;;;;13.93;53.62;97621.73;105027;1249;61646;-67
2023/03/11 05:35:35;;;;;;;11.50;9.60;;;;;;;13.99;53.45;97620.67;104830;1254;61660;-66
2023/03/11 05:38:04;;;;;;;12.90;9.50;;;;;;;14.02;53.18;97614.09;104990;1259;73061;-66
2023/03/11 05:40:34;;;;;;;13.70;9.60;;;;;;;14.02;53.18;97612.81;104853;1272;68840;-67
2023/03/11 05:43:03;;;;;;;14.70;10.80;;;;;;;14.01;53.19;97605.85;104652;1251;71828;-63
2023/03/11 05:45:38;;;;;;;13.70;10.90;;;;;;;14.06;53.07;97605.14;104884;1252;61640;-65
2023/03/11 05:48:06;;;;;;;14.70;10.50;;;;;;;14.09;53.48;97605.17;104992;1249;61665;-65
2023/03/11 05:50:36;;;;;;;14.20;10.70;;;;;;;14.11;53.58;97603.39;105055;1254;73469;-67
2023/03/11 05:53:06;;;;;;;11.80;9.70;;;;;;;14.18;53.92;97609.96;104937;1250;68143;-63
2023/03/11 05:55:35;;;;;;;11.50;9.60;;;;;;;14.27;54.05;97600.00;105012;1249;71612;-63
2023/03/11 05:58:08;;;;;;;12.50;10.30;;;;;;;14.31;53.61;97595.40;105239;1255;61715;-65
2023/03/11 06:00:37;;;;;;;10.90;9.30;;;;;;;14.39;53.76;97593.14;105204;1254;61588;-65
2023/03/11 06:03:18;;;;;;;11.00;9.20;;;;;;;14.45;53.87;97584.63;105219;1252;73493;-67
2023/03/11 06:05:48;;;;;;;12.10;9.90;;;;;;;14.46;54.07;97583.33;105099;1249;70313;-68
2023/03/11 06:08:19;;;;;;;10.30;9.30;;;;;;;14.52;54.01;97577.13;104971;1253;71970;-65
2023/03/11 06:10:47;;;;;;;10.50;9.30;;;;;;;14.62;54.02;97579.09;105091;1253;61791;-68
2023/03/11 06:13:16;;;;;;;12.60;10.30;;;;;;;14.67;54.17;97577.88;105025;1266;61699;-69
2023/03/11 06:15:52;;;;;;;14.10;10.50;;;;;;;14.73;53.72;97573.69;105019;1252;74444;-69
2023/03/11 06:18:27;;;;;;;11.40;9.40;;;;;;;14.81;53.92;97574.81;105034;1253;68795;-69
2023/03/11 06:20:57;;;;;;;12.30;9.30;;;;;;;14.93;53.90;97570.52;105105;1268;72394;-65
2023/03/11 06:23:26;;;;;;;11.70;9.60;;;;;;;15.01;53.05;97567.52;104902;1255;61555;-64
2023/03/11 06:26:04;;;;;;;11.40;9.80;;;;;;;15.06;52.62;97570.99;104858;1252;61666;-71
2023/03/11 06:28:44;;;;;;;12.50;9.80;;;;;;;15.13;52.44;97574.87;104852;1254;73504;-69
2023/03/11 06:31:18;;;;;;;10.90;9.40;;;;;;;15.19;52.19;97567.05;104968;1272;67699;-71
2023/03/11 06:33:47;;;;;;;12.90;10.30;;;;;;;15.26;52.03;97568.77;104783;1250;72573;-71
2023/03/11 06:36:16;;;;;;;12.80;10.60;;;;;;;15.34;52.79;97564.05;104948;1257;61756;-70
2023/03/11 06:38:45;;;;;;;12.80;9.60;;;;;;;15.44;52.01;97561.59;105044;1272;61690;-71
2023/03/11 06:41:15;;;;;;;12.70;11.00;;;;;;;15.49;51.94;97553.10;105129;1251;72375;-70
2023/03/11 06:43:43;;;;;;;11.80;9.80;;;;;;;15.54;51.98;97550.65;104942;1255;69170;-72
2023/03/11 06:46:16;;;;;;;13.10;9.90;;;;;;;15.60;51.81;97547.05;104965;1253;72050;-71
2023/03/11 06:48:45;;;;;;;12.90;10.50;;;;;;;15.70;51.93;97539.21;105030;1256;61565;-64
2023/03/11 06:51:15;;;;;;;11.50;9.50;;;;;;;15.77;51.23;97532.25;105162;1250;61761;-68
2023/03/11 06:53:44;;;;;;;12.30;9.80;;;;;;;15.81;51.06;97526.54;105845;1249;74894;-69
2023/03/11 06:56:14;;;;;;;12.10;10.20;;;;;;;15.87;50.72;97526.36;108731;1249;69028;-70
2023/03/11 06:58:47;;;;;;;12.50;9.80;;;;;;;15.90;50.37;97519.46;105729;1255;73754;-70
2023/03/11 07:01:20;;;;;;;13.20;10.30;;;;;;;15.95;50.76;97519.86;105378;1253;61680;-71
2023/03/11 07:03:49;;;;;;;12.60;10.00;;;;;;;15.95;50.30;97513.52;105117;1253;61602;-71
2023/03/11 07:06:21;;;;;;;13.50;9.70;;;;;;;15.92;50.62;97510.29;104721;1255;74438;-69
2023/03/11 07:08:51;;;;;;;15.10;10.20;;;;;;;15.92;50.39;97514.71;105226;1249;70797;-70
2023/03/11 07:11:22;;;;;;;11.40;9.40;;;;;;;15.95;50.40;97504.48;105151;1263;71259;-66
2023/03/11 07:13:52;;;;;;;13.20;9.90;;;;;;;15.93;50.40;97498.50;105330;1260;61621;-70
2023/03/11 07:16:25;;;;;;;11.90;10.00;;;;;;;15.94;50.62;97497.70;104922;1257;61077;-64
2023/03/11 07:18:59;;;;;;;10.20;9.00;;;;;;;15.91;50.57;97492.72;105491;1253;71950;-68
2023/03/11 07:21:29;;;;;;;11.60;9.10;;;;;;;15.91;50.82;97489.73;105398;1252;69692;-67
2023/03/11 07:23:58;;;;;;;12.90;9.60;;;;;;;15.92;50.36;97487.79;105059;1248;73092;-69
2023/03/11 07:26:28;;;;;;;9.40;8.40;;;;;;;15.96;50.33;97482.30;105132;1253;61698;-68
2023/03/11 07:28:57;;;;;;;15.10;8.80;;;;;;;16.03;49.80;97476.52;105522;1248;61781;-70
2023/03/11 07:31:30;;;;;;;11.40;9.60;;;;;;;16.06;49.72;97476.39;105267;1251;74669;-70
2023/03/11 07:34:02;;;;;;;10.60;8.80;;;;;;;16.08;49.47;97465.56;105438;1251;68278;-67
2023/03/11 07:36:31;;;;;;;11.60;9.40;;;;;;;16.12;49.62;97463.92;105194;1250;71225;-65
2023/03/11 07:39:02;;;;;;;10.20;9.10;;;;;;;16.15;50.23;97454.81;105000;1264;61705;-67
2023/03/11 07:41:33;;;;;;;9.20;8.30;;;;;;;16.19;49.83;97446.79;105310;1252;61631;-67
2023/03/11 07:44:04;;;;;;;10.10;8.30;;;;;;;16.25;49.77;97441.08;104978;1252;72429;-70
2023/03/11 07:46:33;;;;;;;10.40;9.20;;;;;;;16.25;50.73;97436.52;105697;1252;71679;-64
2023/03/11 07:49:02;;;;;;;10.30;8.60;;;;;;;16.28;51.83;97434.20;105268;1250;73007;-66
2023/03/11 07:51:33;;;;;;;10.90;8.40;;;;;;;16.30;51.89;97435.13;105316;1252;61696;-64
2023/03/11 07:54:02;;;;;;;12.80;9.10;;;;;;;16.33;53.05;97428.10;105107;1251;61582;-67
2023/03/11 07:56:33;;;;;;;11.00;9.30;;;;;;;16.34;52.55;97421.96;105078;1250;73036;-61
2023/03/11 07:59:02;;;;;;;12.10;8.70;;;;;;;16.36;52.68;97418.78;105300;1249;68852;-65
2023/03/11 08:01:35;;;;;;;9.90;8.80;;;;;;;16.38;52.52;97413.40;105448;1248;71630;-66
2023/03/11 08:04:04;;;;;;;11.30;8.60;;;;;;;16.32;51.43;97403.25;104947;1260;61648;-70
2023/03/11 08:06:34;;;;;;;13.10;8.30;;;;;;;16.26;51.72;97397.20;105138;1252;61698;-63
2023/03/11 08:09:06;;;;;;;8.70;7.90;;;;;;;16.24;51.83;97392.01;105136;1253;74309;-65
2023/03/11 08:11:35;;;;;;;11.90;8.40;;;;;;;16.21;52.05;97385.10;104753;1263;68611;-65
2023/03/11 08:14:04;;;;;;;10.60;8.90;;;;;;;16.18;52.01;97385.22;105246;1248;70764;-65
2023/03/11 08:16:40;;;;;;;10.20;8.80;;;;;;;16.17;52.83;97382.99;105107;1254;61695;-64
2023/03/11 08:19:12;;;;;;;9.60;8.10;;;;;;;16.14;54.23;97373.63;105124;1251;61712;-64
2023/03/11 08:21:40;;;;;;;11.20;8.80;;;;;;;16.10;55.96;97365.39;105202;1253;72288;-65
2023/03/11 08:24:11;;;;;;;9.90;8.60;;;;;;;16.13;57.16;97367.89;104802;1252;69774;-64
2023/03/11 08:26:40;;;;;;;10.30;9.10;;;;;;;16.10;58.06;97370.52;104736;1250;73132;-64
2023/03/11 08:29:10;;;;;;;10.00;8.80;;;;;;;16.09;59.00;97364.61;104799;1268;61681;-66
2023/03/11 08:31:38;;;;;;;11.10;9.00;;;;;;;16.16;60.43;97366.48;105189;1253;61611;-68
2023/03/11 08:34:09;;;;;;;11.70;9.10;;;;;;;16.25;59.94;97365.73;105078;1251;72646;-69
2023/03/11 08:36:38;;;;;;;12.30;8.40;;;;;;;16.11;59.77;97360.48;104853;1259;68590;-74
2023/03/11 08:39:09;;;;;;;12.50;8.90;;;;;;;16.04;61.98;97353.25;104951;1254;72134;-67
2023/03/11 08:41:37;;;;;;;12.50;10.10;;;;;;;15.95;62.57;97345.30;105057;1255;61820;-66
2023/03/11 08:44:06;;;;;;;11.50;9.30;;;;;;;15.91;62.26;97349.23;105056;1254;61695;-68
2023/03/11 08:46:36;;;;;;;11.10;9.10;;;;;;;15.88;62.89;97348.80;104744;1253;74579;-67
2023/03/11 08:49:04;;;;;;;11.20;9.00;;;;;;;15.84;64.94;97347.48;104875;1250;69194;-66
2023/03/11 08:51:33;;;;;;;10.90;9.70;;;;;;;15.82;64.57;97355.69;104816;1268;71474;-69
2023/03/11 08:54:06;;;;;;;14.70;8.80;;;;;;;15.87;65.79;97345.41;105044;1255;61656;-64
2023/03/11 08:56:34;;;;;;;13.60;10.00;;;;;;;15.86;66.60;97341.14;104964;1262;61585;-64
2023/03/11 08:59:03;;;;;;;12.80;10.40;;;;;;;15.81;67.12;97334.74;104968;1252;73499;-67
2023/03/11 09:01:31;;;;;;;12.90;11.20;;;;;;;15.79;68.80;97330.89;104774;1250;68889;-69
2023/03/11 09:03:59;;;;;;;14.80;11.20;;;;;;;15.80;69.74;97326.35;104777;1250;70954;-66
2023/03/11 09:06:29;;;;;;;13.70;11.90;;;;;;;15.80;68.18;97320.17;104915;1261;62394;-66
2023/03/11 09:08:58;;;;;;;15.80;12.30;;;;;;;15.82;67.43;97321.33;104726;1252;61621;-66
2023/03/11 09:11:27;;;;;;;13.80;11.60;;;;;;;15.79;67.13;97314.59;104793;1254;73560;-65
2023/03/11 09:14:00;;;;;;;14.90;11.60;;;;;;;15.75;66.84;97306.15;104840;1251;69956;-68
2023/03/11 09:16:29;;;;;;;14.50;10.70;;;;;;;15.69;66.87;97300.59;104758;1263;72006;-66
2023/03/11 09:18:59;;;;;;;14.10;10.40;;;;;;;15.67;67.74;97298.89;104827;1255;61694;-66
2023/03/11 09:21:28;;;;;;;13.60;10.00;;;;;;;15.60;67.72;97291.77;104898;1255;61693;-66
2023/03/11 09:23:57;;;;;;;11.20;9.70;;;;;;;15.56;67.96;97290.92;104658;1251;72584;-67
2023/03/11 09:26:25;;;;;;;11.20;9.90;;;;;;;15.47;68.90;97284.08;104881;1256;68752;-67
2023/03/11 09:28:54;;;;;;;10.70;9.60;;;;;;;15.41;69.10;97278.27;104779;1253;71787;-68
2023/03/11 09:31:22;;;;;;;11.70;9.80;;;;;;;15.33;70.32;97273.25;104854;1263;61638;-67
2023/03/11 09:33:51;;;;;;;10.90;9.00;;;;;;;15.32;70.35;97272.29;104765;1250;61701;-66
2023/03/11 09:36:20;;;;;;;10.30;9.00;;;;;;;15.37;70.11;97257.16;104978;1254;74195;-66
2023/03/11 09:38:48;;;;;;;11.20;9.50;;;;;;;15.32;71.58;97247.59;104709;1252;68838;-66
2023/03/11 09:41:20;;;;;;;10.90;8.90;;;;;;;15.32;72.31;97241.08;104939;1254;72244;-66
2023/03/11 09:44:23;;;;;;;11.80;9.80;;;;;;;15.38;72.06;97238.67;104663;1253;61728;-66
2023/03/11 09:47:06;;;;;;;11.20;9.60;;;;;;;15.35;73.02;97232.70;104716;1254;61647;-67
2023/03/11 09:50:13;;;;;;;12.80;9.70;;;;;;;15.37;72.88;97225.75;104824;1257;72048;-65
2023/03/11 09:53:02;;;;;;;11.90;9.90;;;;;;;15.42;73.23;97226.35;104659;1262;70113;-65
2023/03/11 09:55:38;;;;;;;11.90;9.50;;;;;;;15.40;71.25;97225.34;104578;1251;73296;-66
2023/03/11 09:58:23;;;;;;;12.00;9.60;;;;;;;15.33;70.11;97222.95;104786;1260;61694;-67
2023/03/11 10:00:52;;;;;;;11.30;9.60;;;;;;;15.30;69.98;97222.45;105070;1256;61739;-69
2023/03/11 10:03:29;;;;;;;12.60;11.00;;;;;;;15.29;68.90;97222.48;105610;1255;74630;-67
2023/03/11 10:06:23;;;;;;;12.90;10.70;;;;;;;15.27;71.06;97226.40;104819;1261;67572;-68
2023/03/11 10:09:11;;;;;;;13.90;10.50;;;;;;;15.27;69.73;97223.09;104928;1264;73024;-66
2023/03/11 10:12:11;;;;;;;13.80;11.60;;;;;;;15.28;69.53;97217.35;104837;1254;61600;-66
2023/03/11 10:14:47;;;;;;;13.00;11.00;;;;;;;15.18;70.48;97207.52;104909;1250;61583;-66
2023/03/11 10:17:34;;;;;;;18.00;12.00;;;;;;;15.19;70.79;97206.52;104719;1256;73702;-66
2023/03/11 10:20:09;;;;;;;14.00;11.50;;;;;;;15.15;72.48;97197.40;104771;1249;68097;-70
2023/03/11 10:23:19;;;;;;;12.60;11.30;;;;;;;15.11;73.11;97196.94;104978;1269;73070;-69
2023/03/11 10:25:54;;;;;;;12.40;11.00;;;;;;;15.13;75.19;97197.06;107092;1257;61576;-68
2023/03/11 10:28:35;;;;;;;12.30;10.70;;;;;;;15.10;73.98;97189.47;108346;1250;60463;-68
2023/03/11 10:31:13;;;;;;;12.10;10.50;;;;;;;15.08;74.02;97184.35;105141;1251;74426;-68
2023/03/11 10:33:42;;;;;;;;;;;;;;;15.10;74.21;97182.48;105117;1256;70129;-67
2023/03/11 10:36:18;;;;;;;10.80;9.70;;;;;;;15.05;74.93;97177.98;105148;1265;72152;-68
2023/03/11 10:38:47;;;;;;;11.80;9.80;;;;;;;15.09;74.45;97182.35;104640;1265;61598;-68
2023/03/11 10:41:41;;;;;;;9.50;8.60;;;;;;;15.12;73.84;97174.09;104799;1261;61693;-67
2023/03/11 10:44:14;;;;;;;11.40;9.50;;;;;;;15.14;74.70;97165.02;105138;1255;74033;-67
2023/03/11 10:46:42;;;;;;;13.20;10.10;;;;;;;15.16;74.46;97156.95;105368;1257;68638;-66
2023/03/11 10:49:13;;;;;;;11.00;9.90;;;;;;;15.18;74.13;97151.77;104779;1254;72220;-66
2023/03/11 10:51:48;;;;;;;11.20;9.40;;;;;;;15.14;74.85;97143.73;104737;1256;61965;-66
2023/03/11 10:54:24;;;;;;;11.20;10.00;;;;;;;15.10;75.48;97137.73;104793;1255;61657;-66
2023/03/11 10:57:03;;;;;;;13.90;11.50;;;;;;;15.14;77.96;97132.79;105157;1254;72117;-67
2023/03/11 10:59:36;;;;;;;12.40;10.60;;;;;;;15.21;77.86;97121.67;104976;1254;70591;-67
2023/03/11 11:05:24;;;;;;;13.30;11.00;;;;;;;14.03;94.83;97119.55;102239;1294;615872;-69
2023/03/11 11:08:01;;;;;;;12.50;10.50;;;;;;;15.08;86.24;97108.14;104453;1268;60576;-65
2023/03/11 11:10:34;;;;;;;11.50;10.20;;;;;;;15.15;86.38;97096.52;103820;1287;60362;-69
2023/03/11 11:13:07;;;;;;;12.30;10.80;;;;;;;15.24;84.28;97090.70;104469;1266;73601;-66
2023/03/11 11:15:39;;;;;;;11.60;10.20;;;;;;;15.29;85.27;97087.31;104178;1269;68658;-66
2023/03/11 11:18:31;;;;;;;11.80;10.60;;;;;;;15.30;84.71;97087.75;104137;1267;157448;-66
2023/03/11 11:21:09;;;;;;;12.10;10.90;;;;;;;15.32;85.96;97083.83;103945;1277;60496;-60
2023/03/11 11:23:39;;;;;;;10.80;9.70;;;;;;;15.34;85.23;97076.55;105171;1260;60354;-62
2023/03/11 11:26:18;;;;;;;11.00;9.90;;;;;;;15.39;85.20;97070.25;104872;1255;70995;-65
2023/03/11 11:28:45;;;;;;;12.80;10.50;;;;;;;15.41;86.52;97067.38;104655;1261;69042;-63
2023/03/11 11:31:23;;;;;;;13.00;10.30;;;;;;;15.37;85.52;97065.32;104853;1259;73200;-64
2023/03/11 11:33:53;;;;;;;12.70;11.40;;;;;;;15.41;85.24;97061.27;104858;1260;60870;-63
2023/03/11 11:36:23;;;;;;;13.50;12.10;;;;;;;15.46;85.42;97059.10;104857;1258;60876;-66
2023/03/11 11:38:53;;;;;;;13.90;12.10;;;;;;;15.44;86.13;97058.07;104378;1260;72733;-68
2023/03/11 11:41:25;;;;;;;14.10;12.60;;;;;;;15.48;85.98;97055.50;104669;1257;69717;-68
2023/03/11 11:44:03;;;;;;;14.60;11.50;;;;;;;15.47;85.99;97052.28;104918;1258;72740;-67